sensor_id;sensor_type;location;lat;lon;timestamp;P1;durP1;ratioP1;P2;durP2;ratioP2
28627;SDS011;15815;46.760;19.604;2023-04-03T00:01:15;5.30;;;2.70;;
28627;SDS011;15815;46.760;19.604;2023-04-03T00:03:41;6.65;;;2.92;;
28627;SDS011;15815;46.760;19.604;2023-04-03T00:06:11;5.00;;;2.30;;
28627;SDS011;15815;46.760;19.604;2023-04-03T00:08:37;3.55;;;1.73;;
28627;SDS011;15815;46.760;19.604;2023-04-03T00:11:04;4.88;;;2.38;;
28627;SDS011;15815;46.760;19.604;2023-04-03T00:13:30;2.95;;;1.90;;
28627;SDS011;15815;46.760;19.604;2023-04-03T00:15:57;3.97;;;2.00;;
28627;SDS011;15815;46.760;19.604;2023-04-03T00:18:23;3.47;;;2.30;;
28627;SDS011;15815;46.760;19.604;2023-04-03T00:20:48;4.70;;;2.30;;
28627;SDS011;15815;46.760;19.604;2023-04-03T00:23:14;3.00;;;1.98;;
28627;SDS011;15815;46.760;19.604;2023-04-03T00:25:40;5.43;;;2.50;;
28627;SDS011;15815;46.760;19.604;2023-04-03T00:30:34;5.60;;;2.17;;
28627;SDS011;15815;46.760;19.604;2023-04-03T00:33:00;4.93;;;2.20;;
28627;SDS011;15815;46.760;19.604;2023-04-03T00:35:26;2.70;;;1.80;;
28627;SDS011;15815;46.760;19.604;2023-04-03T00:37:53;5.88;;;2.08;;
28627;SDS011;15815;46.760;19.604;2023-04-03T00:40:20;4.22;;;2.20;;
28627;SDS011;15815;46.760;19.604;2023-04-03T00:42:48;3.03;;;1.95;;
28627;SDS011;15815;46.760;19.604;2023-04-03T00:45:30;5.50;;;2.60;;
28627;SDS011;15815;46.760;19.604;2023-04-03T00:48:00;6.50;;;2.65;;
28627;SDS011;15815;46.760;19.604;2023-04-03T00:50:29;4.75;;;2.38;;
28627;SDS011;15815;46.760;19.604;2023-04-03T00:52:55;4.55;;;2.90;;
28627;SDS011;15815;46.760;19.604;2023-04-03T00:55:25;4.05;;;2.58;;
28627;SDS011;15815;46.760;19.604;2023-04-03T00:57:51;4.47;;;2.30;;
28627;SDS011;15815;46.760;19.604;2023-04-03T01:00:21;4.90;;;2.40;;
28627;SDS011;15815;46.760;19.604;2023-04-03T01:02:48;9.10;;;2.65;;
28627;SDS011;15815;46.760;19.604;2023-04-03T01:05:15;3.63;;;2.40;;
28627;SDS011;15815;46.760;19.604;2023-04-03T01:07:42;5.63;;;2.53;;
28627;SDS011;15815;46.760;19.604;2023-04-03T01:10:11;4.05;;;2.30;;
28627;SDS011;15815;46.760;19.604;2023-04-03T01:12:41;5.65;;;2.40;;
28627;SDS011;15815;46.760;19.604;2023-04-03T01:15:09;4.07;;;2.17;;
28627;SDS011;15815;46.760;19.604;2023-04-03T01:28:03;4.10;;;2.17;;
28627;SDS011;15815;46.760;19.604;2023-04-03T01:30:30;5.00;;;2.33;;
28627;SDS011;15815;46.760;19.604;2023-04-03T01:32:58;4.43;;;2.08;;
28627;SDS011;15815;46.760;19.604;2023-04-03T01:35:23;2.92;;;2.45;;
28627;SDS011;15815;46.760;19.604;2023-04-03T01:37:49;3.47;;;2.58;;
28627;SDS011;15815;46.760;19.604;2023-04-03T01:40:15;3.13;;;2.20;;
28627;SDS011;15815;46.760;19.604;2023-04-03T01:42:41;4.30;;;2.28;;
28627;SDS011;15815;46.760;19.604;2023-04-03T01:45:07;5.07;;;2.35;;
28627;SDS011;15815;46.760;19.604;2023-04-03T01:47:33;4.10;;;2.13;;
28627;SDS011;15815;46.760;19.604;2023-04-03T01:49:59;2.80;;;2.30;;
28627;SDS011;15815;46.760;19.604;2023-04-03T01:52:24;7.43;;;2.50;;
28627;SDS011;15815;46.760;19.604;2023-04-03T01:54:50;3.35;;;2.00;;
28627;SDS011;15815;46.760;19.604;2023-04-03T01:57:17;3.53;;;2.08;;
28627;SDS011;15815;46.760;19.604;2023-04-03T01:59:43;3.03;;;2.10;;
28627;SDS011;15815;46.760;19.604;2023-04-03T02:02:08;5.13;;;2.40;;
28627;SDS011;15815;46.760;19.604;2023-04-03T02:04:34;3.75;;;2.60;;
28627;SDS011;15815;46.760;19.604;2023-04-03T02:07:00;7.18;;;2.38;;
28627;SDS011;15815;46.760;19.604;2023-04-03T02:09:25;3.33;;;1.80;;
28627;SDS011;15815;46.760;19.604;2023-04-03T02:11:51;5.15;;;2.30;;
28627;SDS011;15815;46.760;19.604;2023-04-03T02:14:17;3.63;;;2.22;;
28627;SDS011;15815;46.760;19.604;2023-04-03T02:16:42;3.15;;;2.35;;
28627;SDS011;15815;46.760;19.604;2023-04-03T02:19:09;4.97;;;2.40;;
28627;SDS011;15815;46.760;19.604;2023-04-03T02:21:35;3.97;;;2.60;;
28627;SDS011;15815;46.760;19.604;2023-04-03T02:24:00;2.72;;;2.15;;
28627;SDS011;15815;46.760;19.604;2023-04-03T02:26:27;3.80;;;2.55;;
28627;SDS011;15815;46.760;19.604;2023-04-03T02:28:53;3.70;;;2.40;;
28627;SDS011;15815;46.760;19.604;2023-04-03T02:31:21;4.45;;;2.45;;
28627;SDS011;15815;46.760;19.604;2023-04-03T02:33:48;3.17;;;2.58;;
28627;SDS011;15815;46.760;19.604;2023-04-03T02:36:14;9.38;;;3.50;;
28627;SDS011;15815;46.760;19.604;2023-04-03T02:38:40;2.63;;;2.17;;
28627;SDS011;15815;46.760;19.604;2023-04-03T02:41:06;2.60;;;2.40;;
28627;SDS011;15815;46.760;19.604;2023-04-03T02:43:34;3.92;;;2.83;;
28627;SDS011;15815;46.760;19.604;2023-04-03T02:46:00;3.00;;;2.67;;
28627;SDS011;15815;46.760;19.604;2023-04-03T02:48:26;2.72;;;2.17;;
28627;SDS011;15815;46.760;19.604;2023-04-03T02:50:52;3.22;;;2.30;;
28627;SDS011;15815;46.760;19.604;2023-04-03T02:53:18;4.18;;;2.40;;
28627;SDS011;15815;46.760;19.604;2023-04-03T02:55:44;4.18;;;2.97;;
28627;SDS011;15815;46.760;19.604;2023-04-03T02:58:10;4.30;;;2.58;;
28627;SDS011;15815;46.760;19.604;2023-04-03T03:00:38;3.03;;;2.50;;
28627;SDS011;15815;46.760;19.604;2023-04-03T03:03:03;2.38;;;2.17;;
28627;SDS011;15815;46.760;19.604;2023-04-03T03:05:29;3.40;;;2.67;;
28627;SDS011;15815;46.760;19.604;2023-04-03T03:07:57;2.38;;;2.17;;
28627;SDS011;15815;46.760;19.604;2023-04-03T03:10:22;3.85;;;2.92;;
28627;SDS011;15815;46.760;19.604;2023-04-03T03:12:48;2.58;;;2.38;;
28627;SDS011;15815;46.760;19.604;2023-04-03T03:15:14;2.97;;;2.67;;
28627;SDS011;15815;46.760;19.604;2023-04-03T03:17:40;3.08;;;2.65;;
28627;SDS011;15815;46.760;19.604;2023-04-03T03:20:06;3.60;;;2.70;;
28627;SDS011;15815;46.760;19.604;2023-04-03T03:22:34;3.53;;;2.80;;
28627;SDS011;15815;46.760;19.604;2023-04-03T03:25:00;3.03;;;2.30;;
28627;SDS011;15815;46.760;19.604;2023-04-03T03:27:26;5.63;;;2.50;;
28627;SDS011;15815;46.760;19.604;2023-04-03T03:29:51;3.05;;;2.55;;
28627;SDS011;15815;46.760;19.604;2023-04-03T03:32:17;4.68;;;2.50;;
28627;SDS011;15815;46.760;19.604;2023-04-03T03:34:43;4.40;;;2.78;;
28627;SDS011;15815;46.760;19.604;2023-04-03T03:37:13;4.30;;;3.13;;
28627;SDS011;15815;46.760;19.604;2023-04-03T03:39:38;3.60;;;2.75;;
28627;SDS011;15815;46.760;19.604;2023-04-03T03:42:07;3.65;;;2.92;;
28627;SDS011;15815;46.760;19.604;2023-04-03T03:44:32;2.72;;;2.30;;
28627;SDS011;15815;46.760;19.604;2023-04-03T03:46:58;8.57;;;7.32;;
28627;SDS011;15815;46.760;19.604;2023-04-03T03:49:23;10.68;;;8.38;;
28627;SDS011;15815;46.760;19.604;2023-04-03T03:51:53;14.60;;;10.55;;
28627;SDS011;15815;46.760;19.604;2023-04-03T03:54:18;11.30;;;9.65;;
28627;SDS011;15815;46.760;19.604;2023-04-03T03:56:44;13.43;;;10.55;;
28627;SDS011;15815;46.760;19.604;2023-04-03T03:59:11;14.68;;;10.77;;
28627;SDS011;15815;46.760;19.604;2023-04-03T04:01:37;12.68;;;10.02;;
28627;SDS011;15815;46.760;19.604;2023-04-03T04:04:02;12.05;;;9.95;;
28627;SDS011;15815;46.760;19.604;2023-04-03T04:06:28;14.38;;;10.52;;
28627;SDS011;15815;46.760;19.604;2023-04-03T04:08:54;14.98;;;11.52;;
28627;SDS011;15815;46.760;19.604;2023-04-03T04:11:20;12.80;;;9.60;;
28627;SDS011;15815;46.760;19.604;2023-04-03T04:13:45;15.32;;;10.95;;
28627;SDS011;15815;46.760;19.604;2023-04-03T04:16:13;13.70;;;10.95;;
28627;SDS011;15815;46.760;19.604;2023-04-03T04:18:38;12.75;;;9.75;;
28627;SDS011;15815;46.760;19.604;2023-04-03T04:21:04;14.18;;;10.20;;
28627;SDS011;15815;46.760;19.604;2023-04-03T04:23:30;18.35;;;11.13;;
28627;SDS011;15815;46.760;19.604;2023-04-03T04:25:55;17.80;;;12.55;;
28627;SDS011;15815;46.760;19.604;2023-04-03T04:31:29;20.45;;;12.77;;
28627;SDS011;15815;46.760;19.604;2023-04-03T04:33:54;14.95;;;11.63;;
28627;SDS011;15815;46.760;19.604;2023-04-03T04:36:20;14.93;;;10.63;;
28627;SDS011;15815;46.760;19.604;2023-04-03T04:38:46;15.25;;;10.90;;
28627;SDS011;15815;46.760;19.604;2023-04-03T04:41:11;12.35;;;9.90;;
28627;SDS011;15815;46.760;19.604;2023-04-03T04:43:40;13.00;;;10.27;;
28627;SDS011;15815;46.760;19.604;2023-04-03T04:46:07;12.60;;;10.00;;
28627;SDS011;15815;46.760;19.604;2023-04-03T04:48:34;11.77;;;9.48;;
28627;SDS011;15815;46.760;19.604;2023-04-03T04:51:00;13.48;;;8.98;;
28627;SDS011;15815;46.760;19.604;2023-04-03T04:53:26;11.25;;;9.20;;
28627;SDS011;15815;46.760;19.604;2023-04-03T04:55:52;10.90;;;8.52;;
28627;SDS011;15815;46.760;19.604;2023-04-03T04:58:18;11.27;;;9.18;;
28627;SDS011;15815;46.760;19.604;2023-04-03T05:00:44;11.00;;;9.35;;
28627;SDS011;15815;46.760;19.604;2023-04-03T05:03:11;9.40;;;7.60;;
28627;SDS011;15815;46.760;19.604;2023-04-03T05:05:37;10.25;;;8.23;;
28627;SDS011;15815;46.760;19.604;2023-04-03T05:08:03;10.15;;;8.15;;
28627;SDS011;15815;46.760;19.604;2023-04-03T05:10:29;9.35;;;7.85;;
28627;SDS011;15815;46.760;19.604;2023-04-03T05:12:58;11.32;;;7.55;;
28627;SDS011;15815;46.760;19.604;2023-04-03T05:15:23;11.90;;;8.40;;
28627;SDS011;15815;46.760;19.604;2023-04-03T05:17:49;10.40;;;8.10;;
28627;SDS011;15815;46.760;19.604;2023-04-03T05:20:14;21.27;;;16.38;;
28627;SDS011;15815;46.760;19.604;2023-04-03T05:22:42;14.45;;;12.13;;
28627;SDS011;15815;46.760;19.604;2023-04-03T05:25:08;13.70;;;10.20;;
28627;SDS011;15815;46.760;19.604;2023-04-03T05:27:34;11.82;;;9.50;;
28627;SDS011;15815;46.760;19.604;2023-04-03T05:29:59;10.00;;;7.72;;
28627;SDS011;15815;46.760;19.604;2023-04-03T05:32:25;12.15;;;8.13;;
28627;SDS011;15815;46.760;19.604;2023-04-03T05:34:51;8.57;;;7.38;;
28627;SDS011;15815;46.760;19.604;2023-04-03T05:37:16;12.07;;;8.25;;
28627;SDS011;15815;46.760;19.604;2023-04-03T05:39:42;9.75;;;8.05;;
28627;SDS011;15815;46.760;19.604;2023-04-03T05:42:08;14.00;;;7.68;;
28627;SDS011;15815;46.760;19.604;2023-04-03T05:44:34;9.30;;;7.65;;
28627;SDS011;15815;46.760;19.604;2023-04-03T05:46:59;9.77;;;7.65;;
28627;SDS011;15815;46.760;19.604;2023-04-03T05:49:26;9.07;;;7.90;;
28627;SDS011;15815;46.760;19.604;2023-04-03T05:51:51;10.23;;;8.30;;
28627;SDS011;15815;46.760;19.604;2023-04-03T05:54:18;9.77;;;8.27;;
28627;SDS011;15815;46.760;19.604;2023-04-03T05:56:49;10.75;;;8.70;;
28627;SDS011;15815;46.760;19.604;2023-04-03T05:59:16;9.57;;;7.70;;
28627;SDS011;15815;46.760;19.604;2023-04-03T06:01:42;9.95;;;8.40;;
28627;SDS011;15815;46.760;19.604;2023-04-03T06:04:08;8.20;;;7.03;;
28627;SDS011;15815;46.760;19.604;2023-04-03T06:06:47;9.18;;;7.75;;
28627;SDS011;15815;46.760;19.604;2023-04-03T06:09:15;9.65;;;7.82;;
28627;SDS011;15815;46.760;19.604;2023-04-03T06:11:42;9.25;;;7.35;;
28627;SDS011;15815;46.760;19.604;2023-04-03T06:14:08;11.77;;;8.80;;
28627;SDS011;15815;46.760;19.604;2023-04-03T06:16:34;12.68;;;8.98;;
28627;SDS011;15815;46.760;19.604;2023-04-03T06:19:00;13.68;;;9.45;;
28627;SDS011;15815;46.760;19.604;2023-04-03T06:21:25;10.32;;;8.48;;
28627;SDS011;15815;46.760;19.604;2023-04-03T06:23:52;11.73;;;8.60;;
28627;SDS011;15815;46.760;19.604;2023-04-03T06:26:18;13.15;;;8.90;;
28627;SDS011;15815;46.760;19.604;2023-04-03T06:28:44;9.68;;;7.85;;
28627;SDS011;15815;46.760;19.604;2023-04-03T06:31:10;14.27;;;7.97;;
28627;SDS011;15815;46.760;19.604;2023-04-03T06:33:38;10.90;;;8.57;;
28627;SDS011;15815;46.760;19.604;2023-04-03T06:36:04;10.98;;;8.70;;
28627;SDS011;15815;46.760;19.604;2023-04-03T06:38:31;10.73;;;7.93;;
28627;SDS011;15815;46.760;19.604;2023-04-03T06:40:57;11.23;;;8.43;;
28627;SDS011;15815;46.760;19.604;2023-04-03T06:43:23;9.73;;;7.80;;
28627;SDS011;15815;46.760;19.604;2023-04-03T06:45:48;10.68;;;8.40;;
28627;SDS011;15815;46.760;19.604;2023-04-03T06:48:14;11.60;;;8.45;;
28627;SDS011;15815;46.760;19.604;2023-04-03T06:50:42;10.23;;;7.97;;
28627;SDS011;15815;46.760;19.604;2023-04-03T06:53:07;12.63;;;8.27;;
28627;SDS011;15815;46.760;19.604;2023-04-03T06:55:34;10.35;;;7.75;;
28627;SDS011;15815;46.760;19.604;2023-04-03T06:58:00;10.30;;;8.30;;
28627;SDS011;15815;46.760;19.604;2023-04-03T07:00:26;10.30;;;8.32;;
28627;SDS011;15815;46.760;19.604;2023-04-03T07:02:51;12.10;;;9.00;;
28627;SDS011;15815;46.760;19.604;2023-04-03T07:05:17;10.13;;;8.85;;
28627;SDS011;15815;46.760;19.604;2023-04-03T07:07:42;14.50;;;11.02;;
28627;SDS011;15815;46.760;19.604;2023-04-03T07:10:09;13.93;;;9.38;;
28627;SDS011;15815;46.760;19.604;2023-04-03T07:12:35;10.32;;;8.52;;
28627;SDS011;15815;46.760;19.604;2023-04-03T07:15:00;38.38;;;14.38;;
28627;SDS011;15815;46.760;19.604;2023-04-03T07:17:26;27.00;;;13.40;;
28627;SDS011;15815;46.760;19.604;2023-04-03T07:19:52;14.35;;;10.50;;
28627;SDS011;15815;46.760;19.604;2023-04-03T07:22:18;15.80;;;10.35;;
28627;SDS011;15815;46.760;19.604;2023-04-03T07:24:47;10.13;;;8.38;;
28627;SDS011;15815;46.760;19.604;2023-04-03T07:27:12;9.45;;;8.10;;
28627;SDS011;15815;46.760;19.604;2023-04-03T07:29:38;8.63;;;7.55;;
28627;SDS011;15815;46.760;19.604;2023-04-03T07:32:04;9.65;;;7.97;;
28627;SDS011;15815;46.760;19.604;2023-04-03T07:34:30;10.20;;;7.80;;
28627;SDS011;15815;46.760;19.604;2023-04-03T07:36:56;9.07;;;6.78;;
28627;SDS011;15815;46.760;19.604;2023-04-03T07:39:21;10.60;;;8.18;;
28627;SDS011;15815;46.760;19.604;2023-04-03T07:41:51;9.80;;;7.55;;
28627;SDS011;15815;46.760;19.604;2023-04-03T07:44:17;10.07;;;7.53;;
28627;SDS011;15815;46.760;19.604;2023-04-03T07:46:43;10.48;;;7.80;;
28627;SDS011;15815;46.760;19.604;2023-04-03T07:49:09;8.23;;;7.03;;
28627;SDS011;15815;46.760;19.604;2023-04-03T07:51:34;10.10;;;7.53;;
28627;SDS011;15815;46.760;19.604;2023-04-03T07:54:00;11.90;;;8.02;;
28627;SDS011;15815;46.760;19.604;2023-04-03T07:56:26;9.50;;;7.50;;
28627;SDS011;15815;46.760;19.604;2023-04-03T07:58:51;9.52;;;7.68;;
28627;SDS011;15815;46.760;19.604;2023-04-03T08:01:20;10.80;;;7.88;;
28627;SDS011;15815;46.760;19.604;2023-04-03T08:03:52;11.38;;;8.38;;
28627;SDS011;15815;46.760;19.604;2023-04-03T08:06:18;9.40;;;7.88;;
28627;SDS011;15815;46.760;19.604;2023-04-03T08:08:44;7.80;;;6.75;;
28627;SDS011;15815;46.760;19.604;2023-04-03T08:11:10;9.90;;;7.43;;
28627;SDS011;15815;46.760;19.604;2023-04-03T08:13:36;8.55;;;7.60;;
28627;SDS011;15815;46.760;19.604;2023-04-03T08:16:12;10.05;;;8.35;;
28627;SDS011;15815;46.760;19.604;2023-04-03T08:18:41;14.38;;;10.25;;
28627;SDS011;15815;46.760;19.604;2023-04-03T08:21:08;11.52;;;9.30;;
28627;SDS011;15815;46.760;19.604;2023-04-03T08:23:35;11.40;;;8.90;;
28627;SDS011;15815;46.760;19.604;2023-04-03T08:26:11;9.00;;;7.90;;
28627;SDS011;15815;46.760;19.604;2023-04-03T08:28:39;20.02;;;10.10;;
28627;SDS011;15815;46.760;19.604;2023-04-03T08:31:05;13.68;;;10.43;;
28627;SDS011;15815;46.760;19.604;2023-04-03T08:33:33;11.85;;;9.02;;
28627;SDS011;15815;46.760;19.604;2023-04-03T08:35:59;9.45;;;7.72;;
28627;SDS011;15815;46.760;19.604;2023-04-03T08:38:24;8.75;;;7.57;;
28627;SDS011;15815;46.760;19.604;2023-04-03T08:41:50;11.07;;;8.80;;
28627;SDS011;15815;46.760;19.604;2023-04-03T08:43:56;9.70;;;8.52;;
28627;SDS011;15815;46.760;19.604;2023-04-03T08:46:40;10.05;;;7.82;;
28627;SDS011;15815;46.760;19.604;2023-04-03T08:51:56;8.77;;;7.68;;
28627;SDS011;15815;46.760;19.604;2023-04-03T08:54:34;11.25;;;8.38;;
28627;SDS011;15815;46.760;19.604;2023-04-03T08:57:06;9.52;;;7.38;;
28627;SDS011;15815;46.760;19.604;2023-04-03T08:59:33;9.88;;;7.50;;
28627;SDS011;15815;46.760;19.604;2023-04-03T09:02:01;9.77;;;7.80;;
28627;SDS011;15815;46.760;19.604;2023-04-03T09:04:30;7.07;;;6.32;;
28627;SDS011;15815;46.760;19.604;2023-04-03T09:06:58;7.95;;;6.53;;
28627;SDS011;15815;46.760;19.604;2023-04-03T09:09:35;8.20;;;6.78;;
28627;SDS011;15815;46.760;19.604;2023-04-03T09:14:32;7.65;;;6.85;;
28627;SDS011;15815;46.760;19.604;2023-04-03T09:17:21;9.23;;;7.32;;
28627;SDS011;15815;46.760;19.604;2023-04-03T09:22:44;7.72;;;5.97;;
28627;SDS011;15815;46.760;19.604;2023-04-03T09:25:13;9.20;;;5.78;;
28627;SDS011;15815;46.760;19.604;2023-04-03T09:27:43;9.95;;;5.60;;
28627;SDS011;15815;46.760;19.604;2023-04-03T09:30:15;6.30;;;5.22;;
28627;SDS011;15815;46.760;19.604;2023-04-03T09:32:48;5.32;;;4.53;;
28627;SDS011;15815;46.760;19.604;2023-04-03T09:35:34;6.50;;;4.90;;
28627;SDS011;15815;46.760;19.604;2023-04-03T09:38:14;6.40;;;5.45;;
28627;SDS011;15815;46.760;19.604;2023-04-03T09:40:42;8.65;;;6.38;;
28627;SDS011;15815;46.760;19.604;2023-04-03T09:45:42;9.75;;;7.18;;
28627;SDS011;15815;46.760;19.604;2023-04-03T09:56:02;7.47;;;5.50;;
28627;SDS011;15815;46.760;19.604;2023-04-03T09:58:31;7.97;;;5.38;;
28627;SDS011;15815;46.760;19.604;2023-04-03T10:01:00;6.10;;;5.50;;
28627;SDS011;15815;46.760;19.604;2023-04-03T10:03:31;6.70;;;5.60;;
28627;SDS011;15815;46.760;19.604;2023-04-03T10:05:59;6.13;;;5.38;;
28627;SDS011;15815;46.760;19.604;2023-04-03T10:08:27;7.18;;;6.47;;
28627;SDS011;15815;46.760;19.604;2023-04-03T10:13:32;5.82;;;5.22;;
28627;SDS011;15815;46.760;19.604;2023-04-03T10:21:29;6.70;;;5.07;;
28627;SDS011;15815;46.760;19.604;2023-04-03T10:24:14;5.28;;;4.53;;
28627;SDS011;15815;46.760;19.604;2023-04-03T10:41:00;4.45;;;4.05;;
28627;SDS011;15815;46.760;19.604;2023-04-03T10:43:36;5.55;;;4.43;;
28627;SDS011;15815;46.760;19.604;2023-04-03T10:51:46;7.03;;;3.83;;
28627;SDS011;15815;46.760;19.604;2023-04-03T10:57:18;6.68;;;3.58;;
28627;SDS011;15815;46.760;19.604;2023-04-03T10:59:50;4.95;;;4.07;;
28627;SDS011;15815;46.760;19.604;2023-04-03T11:02:31;5.93;;;4.40;;
28627;SDS011;15815;46.760;19.604;2023-04-03T11:05:15;5.28;;;3.55;;
28627;SDS011;15815;46.760;19.604;2023-04-03T11:07:48;4.13;;;3.35;;
28627;SDS011;15815;46.760;19.604;2023-04-03T11:10:21;3.75;;;3.40;;
28627;SDS011;15815;46.760;19.604;2023-04-03T11:15:36;6.07;;;3.38;;
28627;SDS011;15815;46.760;19.604;2023-04-03T11:18:06;4.53;;;3.10;;
28627;SDS011;15815;46.760;19.604;2023-04-03T11:20:37;4.35;;;3.60;;
28627;SDS011;15815;46.760;19.604;2023-04-03T11:23:14;8.00;;;5.15;;
28627;SDS011;15815;46.760;19.604;2023-04-03T11:25:47;5.63;;;3.97;;
28627;SDS011;15815;46.760;19.604;2023-04-03T11:28:17;6.18;;;3.17;;
28627;SDS011;15815;46.760;19.604;2023-04-03T11:30:45;4.90;;;3.63;;
28627;SDS011;15815;46.760;19.604;2023-04-03T11:33:37;3.55;;;2.95;;
28627;SDS011;15815;46.760;19.604;2023-04-03T11:36:26;5.45;;;2.80;;
28627;SDS011;15815;46.760;19.604;2023-04-03T11:38:56;9.55;;;3.10;;
28627;SDS011;15815;46.760;19.604;2023-04-03T11:41:29;8.27;;;3.70;;
28627;SDS011;15815;46.760;19.604;2023-04-03T11:44:01;8.35;;;3.05;;
28627;SDS011;15815;46.760;19.604;2023-04-03T12:05:53;3.65;;;2.78;;
28627;SDS011;15815;46.760;19.604;2023-04-03T12:16:29;3.05;;;2.75;;
28627;SDS011;15815;46.760;19.604;2023-04-03T12:18:56;2.55;;;2.35;;
28627;SDS011;15815;46.760;19.604;2023-04-03T12:26:26;7.38;;;4.13;;
28627;SDS011;15815;46.760;19.604;2023-04-03T12:28:55;5.75;;;3.92;;
28627;SDS011;15815;46.760;19.604;2023-04-03T12:31:22;2.88;;;2.60;;
28627;SDS011;15815;46.760;19.604;2023-04-03T12:34:18;6.82;;;2.60;;
28627;SDS011;15815;46.760;19.604;2023-04-03T12:37:03;8.55;;;2.72;;
28627;SDS011;15815;46.760;19.604;2023-04-03T12:44:54;3.13;;;2.65;;
28627;SDS011;15815;46.760;19.604;2023-04-03T12:47:42;7.30;;;2.80;;
28627;SDS011;15815;46.760;19.604;2023-04-03T12:55:36;3.95;;;2.78;;
28627;SDS011;15815;46.760;19.604;2023-04-03T13:00:58;4.28;;;2.03;;
28627;SDS011;15815;46.760;19.604;2023-04-03T13:03:25;3.15;;;1.98;;
28627;SDS011;15815;46.760;19.604;2023-04-03T13:05:53;2.53;;;2.33;;
28627;SDS011;15815;46.760;19.604;2023-04-03T13:08:22;2.28;;;2.05;;
28627;SDS011;15815;46.760;19.604;2023-04-03T13:11:08;12.90;;;3.80;;
28627;SDS011;15815;46.760;19.604;2023-04-03T13:13:36;3.70;;;3.15;;
28627;SDS011;15815;46.760;19.604;2023-04-03T13:16:09;5.88;;;3.53;;
28627;SDS011;15815;46.760;19.604;2023-04-03T13:18:36;4.63;;;2.95;;
28627;SDS011;15815;46.760;19.604;2023-04-03T13:21:04;2.85;;;2.50;;
28627;SDS011;15815;46.760;19.604;2023-04-03T13:23:45;5.28;;;3.08;;
28627;SDS011;15815;46.760;19.604;2023-04-03T13:26:17;3.57;;;2.70;;
28627;SDS011;15815;46.760;19.604;2023-04-03T13:28:45;8.50;;;5.45;;
28627;SDS011;15815;46.760;19.604;2023-04-03T13:33:37;4.35;;;3.55;;
28627;SDS011;15815;46.760;19.604;2023-04-03T13:36:05;9.88;;;8.55;;
28627;SDS011;15815;46.760;19.604;2023-04-03T13:38:33;12.10;;;10.18;;
28627;SDS011;15815;46.760;19.604;2023-04-03T13:41:00;9.57;;;8.77;;
28627;SDS011;15815;46.760;19.604;2023-04-03T13:43:33;7.43;;;6.40;;
28627;SDS011;15815;46.760;19.604;2023-04-03T13:48:36;37.80;;;30.70;;
28627;SDS011;15815;46.760;19.604;2023-04-03T13:56:07;5.97;;;4.00;;
28627;SDS011;15815;46.760;19.604;2023-04-03T13:58:51;5.05;;;3.30;;
28627;SDS011;15815;46.760;19.604;2023-04-03T14:01:23;4.70;;;4.20;;
28627;SDS011;15815;46.760;19.604;2023-04-03T14:03:57;4.13;;;3.72;;
28627;SDS011;15815;46.760;19.604;2023-04-03T14:06:28;20.33;;;4.18;;
28627;SDS011;15815;46.760;19.604;2023-04-03T14:08:53;8.88;;;4.63;;
28627;SDS011;15815;46.760;19.604;2023-04-03T14:11:20;5.43;;;3.15;;
28627;SDS011;15815;46.760;19.604;2023-04-03T14:13:51;3.75;;;2.65;;
28627;SDS011;15815;46.760;19.604;2023-04-03T14:16:19;9.52;;;5.90;;
28627;SDS011;15815;46.760;19.604;2023-04-03T14:18:48;3.00;;;2.70;;
28627;SDS011;15815;46.760;19.604;2023-04-03T14:21:21;3.72;;;2.67;;
28627;SDS011;15815;46.760;19.604;2023-04-03T14:23:47;4.40;;;2.72;;
28627;SDS011;15815;46.760;19.604;2023-04-03T14:26:18;3.25;;;2.35;;
28627;SDS011;15815;46.760;19.604;2023-04-03T14:28:47;1.90;;;1.70;;
28627;SDS011;15815;46.760;19.604;2023-04-03T14:31:14;2.83;;;2.50;;
28627;SDS011;15815;46.760;19.604;2023-04-03T14:33:42;3.05;;;2.58;;
28627;SDS011;15815;46.760;19.604;2023-04-03T14:36:14;4.07;;;2.75;;
28627;SDS011;15815;46.760;19.604;2023-04-03T14:38:45;2.15;;;1.95;;
28627;SDS011;15815;46.760;19.604;2023-04-03T14:41:13;2.63;;;2.10;;
28627;SDS011;15815;46.760;19.604;2023-04-03T14:43:40;6.22;;;3.08;;
28627;SDS011;15815;46.760;19.604;2023-04-03T14:46:42;4.70;;;2.95;;
28627;SDS011;15815;46.760;19.604;2023-04-03T14:49:00;6.07;;;1.83;;
28627;SDS011;15815;46.760;19.604;2023-04-03T14:51:29;3.35;;;2.88;;
28627;SDS011;15815;46.760;19.604;2023-04-03T14:53:56;3.00;;;2.35;;
28627;SDS011;15815;46.760;19.604;2023-04-03T14:56:23;8.07;;;3.30;;
28627;SDS011;15815;46.760;19.604;2023-04-03T14:58:52;4.82;;;2.90;;
28627;SDS011;15815;46.760;19.604;2023-04-03T15:01:21;6.10;;;3.83;;
28627;SDS011;15815;46.760;19.604;2023-04-03T15:03:47;24.90;;;16.52;;
28627;SDS011;15815;46.760;19.604;2023-04-03T15:06:13;23.58;;;15.82;;
28627;SDS011;15815;46.760;19.604;2023-04-03T15:08:40;33.92;;;23.13;;
28627;SDS011;15815;46.760;19.604;2023-04-03T15:11:06;14.73;;;11.07;;
28627;SDS011;15815;46.760;19.604;2023-04-03T15:13:32;7.60;;;6.38;;
28627;SDS011;15815;46.760;19.604;2023-04-03T15:15:58;8.48;;;5.63;;
28627;SDS011;15815;46.760;19.604;2023-04-03T15:18:26;9.48;;;6.10;;
28627;SDS011;15815;46.760;19.604;2023-04-03T15:20:53;24.52;;;12.65;;
28627;SDS011;15815;46.760;19.604;2023-04-03T15:23:21;10.27;;;5.78;;
28627;SDS011;15815;46.760;19.604;2023-04-03T15:25:47;20.90;;;7.15;;
28627;SDS011;15815;46.760;19.604;2023-04-03T15:28:18;8.15;;;3.67;;
28627;SDS011;15815;46.760;19.604;2023-04-03T15:30:47;14.50;;;5.40;;
28627;SDS011;15815;46.760;19.604;2023-04-03T15:33:18;13.60;;;5.82;;
28627;SDS011;15815;46.760;19.604;2023-04-03T15:35:45;30.50;;;12.23;;
28627;SDS011;15815;46.760;19.604;2023-04-03T15:38:10;7.28;;;4.03;;
28627;SDS011;15815;46.760;19.604;2023-04-03T15:40:37;6.57;;;3.35;;
28627;SDS011;15815;46.760;19.604;2023-04-03T15:43:03;6.60;;;3.20;;
28627;SDS011;15815;46.760;19.604;2023-04-03T15:45:30;12.13;;;5.43;;
28627;SDS011;15815;46.760;19.604;2023-04-03T15:47:56;5.53;;;2.50;;
28627;SDS011;15815;46.760;19.604;2023-04-03T15:50:24;3.30;;;2.60;;
28627;SDS011;15815;46.760;19.604;2023-04-03T15:52:50;7.05;;;4.97;;
28627;SDS011;15815;46.760;19.604;2023-04-03T15:55:17;13.13;;;5.72;;
28627;SDS011;15815;46.760;19.604;2023-04-03T15:57:42;3.78;;;2.40;;
28627;SDS011;15815;46.760;19.604;2023-04-03T16:00:08;4.72;;;3.03;;
28627;SDS011;15815;46.760;19.604;2023-04-03T16:02:34;17.33;;;6.82;;
28627;SDS011;15815;46.760;19.604;2023-04-03T16:05:00;20.10;;;8.50;;
28627;SDS011;15815;46.760;19.604;2023-04-03T16:07:30;23.73;;;10.32;;
28627;SDS011;15815;46.760;19.604;2023-04-03T16:09:56;9.57;;;4.93;;
28627;SDS011;15815;46.760;19.604;2023-04-03T16:12:22;10.93;;;5.75;;
28627;SDS011;15815;46.760;19.604;2023-04-03T16:14:48;21.05;;;8.70;;
28627;SDS011;15815;46.760;19.604;2023-04-03T16:17:16;14.75;;;7.57;;
28627;SDS011;15815;46.760;19.604;2023-04-03T16:19:42;18.95;;;9.05;;
28627;SDS011;15815;46.760;19.604;2023-04-03T16:22:08;11.10;;;5.55;;
28627;SDS011;15815;46.760;19.604;2023-04-03T16:24:35;15.35;;;7.07;;
28627;SDS011;15815;46.760;19.604;2023-04-03T16:27:01;7.00;;;4.20;;
28627;SDS011;15815;46.760;19.604;2023-04-03T16:29:26;10.52;;;3.70;;
28627;SDS011;15815;46.760;19.604;2023-04-03T16:31:52;5.18;;;3.42;;
28627;SDS011;15815;46.760;19.604;2023-04-03T16:34:19;8.10;;;3.47;;
28627;SDS011;15815;46.760;19.604;2023-04-03T16:36:45;7.60;;;4.18;;
28627;SDS011;15815;46.760;19.604;2023-04-03T16:39:14;11.35;;;3.65;;